Time;durP1;ratioP1;P1;durP2;ratioP2;P2;SDS_P1;SDS_P2;PMS_P1;PMS_P2;Temp;Humidity;BMP_temperature;BMP_pressure;BME280_temperature;BME280_humidity;BME280_pressure;Samples;Min_cycle;Max_cycle;Signal;HPM_P1;HPM_P2
2022/06/11 00:00:16;;;;;;;9.60;5.62;;;;;;;19.01;59.06;100075.13;1766684;80;20944;-71
2022/06/11 00:02:43;;;;;;;10.32;5.65;;;;;;;19.01;59.37;100065.77;1781317;79;21848;-72
2022/06/11 00:05:09;;;;;;;10.18;5.80;;;;;;;19.01;59.60;100068.44;1803038;79;21036;-71
2022/06/11 00:07:37;;;;;;;10.45;6.28;;;;;;;19.00;59.94;100073.95;1811208;79;20961;-71
2022/06/11 00:10:09;;;;;;;9.75;5.70;;;;;;;18.98;60.13;100073.31;1767519;80;20941;-71
2022/06/11 00:12:35;;;;;;;9.28;5.67;;;;;;;18.97;60.41;100076.50;1805675;79;20984;-71
2022/06/11 00:15:04;;;;;;;11.45;5.90;;;;;;;18.94;60.69;100066.67;1775372;79;21490;-71
2022/06/11 00:17:36;;;;;;;10.03;5.42;;;;;;;18.90;60.74;100070.20;1814066;79;20984;-71
2022/06/11 00:20:05;;;;;;;9.38;5.83;;;;;;;18.87;60.94;100066.06;1801179;79;21005;-71
2022/06/11 00:22:35;;;;;;;10.00;6.42;;;;;;;18.88;61.22;100069.56;1788555;79;20949;-71
2022/06/11 00:25:03;;;;;;;11.35;6.15;;;;;;;18.87;61.43;100068.73;1782347;79;21013;-71
2022/06/11 00:27:30;;;;;;;12.18;6.00;;;;;;;18.86;61.68;100083.12;1787636;79;21868;-72
2022/06/11 00:29:56;;;;;;;10.58;5.90;;;;;;;18.87;61.91;100074.59;1795296;79;20977;-72
2022/06/11 00:32:22;;;;;;;11.50;5.85;;;;;;;18.85;62.07;100070.77;1798157;79;20993;-71
2022/06/11 00:34:49;;;;;;;7.97;5.78;;;;;;;18.83;62.17;100073.31;1792355;79;21486;-71
2022/06/11 00:37:17;;;;;;;10.25;6.10;;;;;;;18.81;62.27;100072.13;1793631;79;20938;-71
2022/06/11 00:39:44;;;;;;;9.10;6.10;;;;;;;18.79;62.49;100074.16;1799497;79;22525;-71
2022/06/11 00:42:19;;;;;;;12.90;6.28;;;;;;;18.78;62.80;100076.52;1811063;79;20988;-71
2022/06/11 00:44:46;;;;;;;13.22;6.37;;;;;;;18.76;63.26;100080.39;1763450;80;20952;-71
2022/06/11 00:47:19;;;;;;;11.05;6.50;;;;;;;18.73;63.66;100078.09;1780050;79;20956;-71
2022/06/11 00:49:57;;;;;;;9.78;6.17;;;;;;;18.71;64.10;100075.58;1786728;79;21395;-71
2022/06/11 00:52:38;;;;;;;10.05;5.95;;;;;;;18.69;64.33;100075.44;1804873;79;22518;-71
2022/06/11 00:55:12;;;;;;;10.30;6.70;;;;;;;18.68;64.47;100080.47;1788445;79;20949;-71
2022/06/11 00:57:49;;;;;;;14.63;6.45;;;;;;;18.67;64.69;100078.30;1809709;79;21472;-71
2022/06/11 01:00:21;;;;;;;9.73;6.22;;;;;;;18.67;65.01;100072.13;1805790;79;21533;-72
2022/06/11 01:02:49;;;;;;;9.85;6.22;;;;;;;18.66;65.21;100073.97;1804983;79;21032;-71
2022/06/11 01:05:27;;;;;;;11.30;6.37;;;;;;;18.67;65.48;100077.47;1814460;79;22014;-71
2022/06/11 01:08:17;;;;;;;9.73;6.00;;;;;;;18.64;65.58;100074.63;1813185;79;21044;-71
2022/06/11 01:11:22;;;;;;;8.15;5.85;;;;;;;18.62;65.67;100076.62;1772986;79;21049;-72
2022/06/11 01:14:38;;;;;;;8.88;6.25;;;;;;;18.56;65.57;100078.20;1783616;79;20985;-72
2022/06/11 01:17:59;;;;;;;9.08;6.47;;;;;;;18.46;65.86;100076.28;1796377;79;21071;-72
2022/06/11 01:21:13;;;;;;;10.68;6.30;;;;;;;18.36;66.04;100082.38;1803594;79;22464;-72
2022/06/11 01:24:18;;;;;;;9.45;6.30;;;;;;;18.27;66.07;100074.92;1706790;82;21411;-72
2022/06/11 01:26:57;;;;;;;;;;;;;;;18.21;65.94;100081.48;1806410;79;20945;-72
2022/06/11 01:29:46;;;;;;;9.05;6.75;;;;;;;18.14;66.07;100085.36;1789394;79;20878;-72
2022/06/11 01:32:25;;;;;;;9.28;6.65;;;;;;;18.08;66.09;100084.75;1790289;79;21399;-71
2022/06/11 01:35:27;;;;;;;11.15;6.53;;;;;;;18.02;66.41;100083.61;1793206;79;21858;-72
2022/06/11 01:38:00;;;;;;;11.78;7.22;;;;;;;17.98;66.46;100079.64;1778052;79;20941;-72
2022/06/11 01:40:38;;;;;;;8.95;6.25;;;;;;;17.95;66.46;100084.48;1804241;79;21130;-72
2022/06/11 01:43:32;;;;;;;9.83;6.72;;;;;;;17.93;66.42;100089.18;1798434;79;20957;-72
2022/06/11 01:46:02;;;;;;;11.20;6.90;;;;;;;17.88;66.36;100080.38;1810238;79;21526;-72
2022/06/11 01:48:29;;;;;;;16.10;7.00;;;;;;;17.84;66.43;100072.36;1780336;79;21929;-72
2022/06/11 01:51:17;;;;;;;13.95;6.80;;;;;;;17.82;66.45;100084.24;1797355;79;20945;-72
2022/06/11 01:53:52;;;;;;;10.85;7.03;;;;;;;17.78;66.44;100088.28;1791047;79;20933;-72
2022/06/11 01:56:42;;;;;;;10.18;7.37;;;;;;;17.74;66.46;100093.12;1790794;79;21079;-72
2022/06/11 01:59:50;;;;;;;10.20;7.28;;;;;;;17.70;66.43;100097.16;1799830;79;21016;-72
2022/06/11 02:02:43;;;;;;;12.10;7.28;;;;;;;17.67;66.49;100098.32;1803858;79;22285;-72
2022/06/11 02:05:16;;;;;;;10.68;7.00;;;;;;;17.65;66.49;100102.98;1785788;79;21004;-72
2022/06/11 02:08:06;;;;;;;10.05;6.70;;;;;;;17.66;66.57;100104.67;1810612;79;21031;-72
2022/06/11 02:10:39;;;;;;;13.10;7.25;;;;;;;17.65;66.65;100105.65;1808024;79;21032;-72
2022/06/11 02:13:27;;;;;;;8.95;7.30;;;;;;;17.65;66.69;100106.16;1791771;79;21098;-72
2022/06/11 02:15:59;;;;;;;10.08;6.78;;;;;;;17.64;66.70;100101.32;1810298;79;21844;-70
2022/06/11 02:18:26;;;;;;;12.82;7.10;;;;;;;17.66;66.74;100104.67;1796517;79;21063;-70
2022/06/11 02:21:02;;;;;;;11.88;8.00;;;;;;;17.69;66.79;100103.48;1795260;79;21059;-70
2022/06/11 02:23:39;;;;;;;10.80;7.50;;;;;;;17.68;66.80;100112.00;1799632;79;21073;-70
2022/06/11 02:26:13;;;;;;;11.50;7.70;;;;;;;17.71;66.90;100113.52;1801572;79;21407;-70
2022/06/11 02:28:42;;;;;;;14.35;7.55;;;;;;;17.69;66.91;100113.70;1786183;79;21856;-70
2022/06/11 02:31:11;;;;;;;13.50;7.67;;;;;;;17.71;66.82;100109.52;1792534;79;21071;-70
2022/06/11 02:33:38;;;;;;;11.73;7.92;;;;;;;17.73;66.82;100115.00;1760980;79;21031;-71
2022/06/11 02:36:13;;;;;;;10.80;7.65;;;;;;;17.77;66.93;100122.69;1804001;79;21052;-71
2022/06/11 02:38:40;;;;;;;10.60;7.70;;;;;;;17.81;66.87;100114.64;1806985;79;20996;-72
2022/06/11 02:41:14;;;;;;;14.23;8.08;;;;;;;17.84;66.85;100115.62;1796014;79;22590;-72
2022/06/11 02:43:40;;;;;;;11.78;8.25;;;;;;;17.89;66.86;100121.28;1795965;79;20985;-72
2022/06/11 02:48:53;;;;;;;11.88;7.95;;;;;;;17.96;66.84;100126.27;1786730;79;20979;-75
2022/06/11 02:51:20;;;;;;;14.33;8.03;;;;;;;18.02;66.75;100121.53;1812838;79;21078;-72
2022/06/11 02:53:47;;;;;;;11.05;8.28;;;;;;;18.10;66.77;100120.15;1798923;79;21900;-71
2022/06/11 02:56:14;;;;;;;17.65;8.13;;;;;;;18.16;66.75;100114.62;1785845;79;20965;-73
2022/06/11 02:58:41;;;;;;;12.68;8.23;;;;;;;18.19;66.72;100117.75;1787241;79;20992;-72
2022/06/11 03:01:08;;;;;;;13.70;8.55;;;;;;;18.23;66.62;100116.88;1790879;79;21356;-71
2022/06/11 03:03:35;;;;;;;13.98;8.33;;;;;;;18.26;66.66;100120.05;1745465;80;20979;-71
2022/06/11 03:06:02;;;;;;;15.20;7.75;;;;;;;18.28;66.73;100122.04;1787932;79;21977;-72
2022/06/11 03:08:29;;;;;;;14.20;8.65;;;;;;;18.31;66.59;100120.34;1783958;79;21518;-72
2022/06/11 03:10:58;;;;;;;13.75;8.55;;;;;;;18.33;66.51;100121.48;1787335;79;20988;-71
2022/06/11 03:13:26;;;;;;;10.90;8.25;;;;;;;18.37;66.45;100120.14;1787373;79;20949;-73
2022/06/11 03:15:54;;;;;;;10.43;8.03;;;;;;;18.43;66.39;100121.25;1712437;82;21376;-71
2022/06/11 03:18:22;;;;;;;12.43;8.18;;;;;;;18.50;66.47;100120.88;1696906;83;22689;-71
2022/06/11 03:20:54;;;;;;;15.43;8.63;;;;;;;18.56;66.38;100123.67;1724963;82;21511;-72
2022/06/11 03:23:18;;;;;;;14.93;8.13;;;;;;;18.63;66.28;100126.98;1756422;81;21092;-71
2022/06/11 03:25:45;;;;;;;13.98;8.58;;;;;;;18.71;66.12;100125.58;1722573;81;20997;-72
2022/06/11 03:28:20;;;;;;;10.55;8.45;;;;;;;18.84;66.14;100118.62;1754800;80;21021;-72
2022/06/11 03:30:48;;;;;;;12.45;8.15;;;;;;;18.97;66.11;100119.83;1764010;80;22022;-72
2022/06/11 03:33:15;;;;;;;11.22;7.90;;;;;;;19.08;66.06;100118.04;1733422;82;21320;-72
2022/06/11 03:35:44;;;;;;;11.55;8.10;;;;;;;19.19;66.01;100118.09;1746622;82;21470;-72
2022/06/11 03:38:11;;;;;;;11.95;8.35;;;;;;;19.29;65.77;100116.80;1720469;82;21031;-72
2022/06/11 03:40:39;;;;;;;11.45;8.03;;;;;;;19.41;65.48;100120.70;1684047;82;21127;-71
2022/06/11 03:43:05;;;;;;;16.85;8.28;;;;;;;19.56;65.10;100121.22;1731068;82;21938;-74
2022/06/11 03:45:32;;;;;;;15.88;8.20;;;;;;;19.71;64.60;100126.06;1729162;82;21041;-72
2022/06/11 03:47:58;;;;;;;12.47;7.85;;;;;;;19.86;64.20;100121.49;1716087;82;21096;-71
2022/06/11 03:50:29;;;;;;;13.55;7.90;;;;;;;20.04;63.78;100125.62;1718509;82;20962;-73
2022/06/11 03:52:56;;;;;;;14.73;8.40;;;;;;;20.21;63.38;100129.22;1727380;82;20962;-72
2022/06/11 03:55:23;;;;;;;11.70;7.60;;;;;;;20.37;62.92;100129.50;1710418;82;21910;-73
2022/06/11 03:57:50;;;;;;;12.00;7.70;;;;;;;20.54;62.58;100128.23;1733010;82;21060;-72
2022/06/11 04:01:14;;;;;;;11.53;8.33;;;;;;;20.68;62.16;100132.39;1730763;82;21077;-72
2022/06/11 04:02:50;;;;;;;10.08;7.97;;;;;;;20.80;61.65;100126.81;1718336;82;21048;-71
2022/06/11 04:05:17;;;;;;;12.30;7.62;;;;;;;20.93;61.08;100131.44;1726546;82;20972;-72
2022/06/11 04:07:44;;;;;;;17.30;7.60;;;;;;;21.04;60.55;100133.10;1713683;82;21858;-72
2022/06/11 04:10:11;;;;;;;16.70;7.78;;;;;;;21.18;60.24;100134.52;1723940;82;21005;-72
2022/06/11 04:12:37;;;;;;;13.15;7.28;;;;;;;21.28;59.76;100129.66;1741485;82;20945;-73
2022/06/11 04:15:06;;;;;;;12.68;7.35;;;;;;;21.41;59.23;100132.41;1717506;82;21416;-70
2022/06/11 04:17:34;;;;;;;13.15;6.87;;;;;;;21.51;58.85;100134.23;1692952;83;21039;-72
2022/06/11 04:20:00;;;;;;;11.25;6.70;;;;;;;21.63;58.34;100132.66;1720416;83;21752;-72
2022/06/11 04:22:28;;;;;;;13.70;6.80;;;;;;;21.71;57.95;100143.25;1670721;82;20981;-69
2022/06/11 04:24:55;;;;;;;11.78;6.97;;;;;;;21.82;57.57;100142.36;1728681;82;20961;-72
2022/06/11 04:27:22;;;;;;;12.30;6.75;;;;;;;21.91;56.70;100145.19;1737953;81;21044;-71
2022/06/11 04:29:53;;;;;;;12.70;6.70;;;;;;;22.03;56.14;100141.40;1708451;83;21127;-71
2022/06/11 04:32:21;;;;;;;11.80;6.78;;;;;;;22.14;55.59;100143.02;1708153;83;21995;-71
2022/06/11 04:34:48;;;;;;;15.45;6.30;;;;;;;22.23;55.26;100144.48;1741541;81;20917;-71
2022/06/11 04:37:16;;;;;;;18.92;7.28;;;;;;;22.32;55.09;100145.66;1714199;83;20961;-71
2022/06/11 04:39:49;;;;;;;13.08;6.47;;;;;;;22.38;54.43;100137.56;1707620;83;21029;-71
2022/06/11 04:42:16;;;;;;;13.13;6.97;;;;;;;22.47;54.13;100139.03;1728810;81;20963;-72
2022/06/11 04:44:43;;;;;;;11.78;6.80;;;;;;;22.54;53.90;100139.05;1710037;83;22500;-71
2022/06/11 04:47:12;;;;;;;12.82;6.85;;;;;;;22.62;53.83;100146.94;1742538;81;20920;-71
2022/06/11 04:49:38;;;;;;;10.93;6.75;;;;;;;22.69;53.90;100155.03;1712195;83;20997;-71
2022/06/11 04:52:05;;;;;;;10.38;6.75;;;;;;;22.72;53.79;100147.36;1730209;82;21411;-71
2022/06/11 04:54:32;;;;;;;9.93;6.70;;;;;;;22.79;53.74;100148.72;1728955;80;21015;-71
2022/06/11 04:56:59;;;;;;;15.78;6.37;;;;;;;22.85;53.58;100147.38;1714127;83;21814;-71
2022/06/11 04:59:26;;;;;;;8.73;6.58;;;;;;;22.91;53.19;100147.60;1708497;82;20957;-72
2022/06/11 05:01:53;;;;;;;9.83;6.47;;;;;;;22.95;53.27;100144.79;1727421;80;21102;-71
2022/06/11 05:04:20;;;;;;;9.98;6.50;;;;;;;23.02;53.31;100151.01;1712137;83;21058;-71
2022/06/11 05:06:47;;;;;;;12.30;6.17;;;;;;;23.08;53.15;100146.97;1714529;83;20956;-71
2022/06/11 05:09:17;;;;;;;9.90;6.17;;;;;;;23.16;53.03;100150.47;1714338;83;21949;-71
2022/06/11 05:11:44;;;;;;;10.68;5.97;;;;;;;23.22;52.67;100146.42;1712062;83;21087;-71
2022/06/11 05:14:11;;;;;;;12.75;6.28;;;;;;;23.27;52.34;100154.73;1722200;83;21043;-71
2022/06/11 05:16:41;;;;;;;10.98;6.08;;;;;;;23.34;52.17;100150.13;1711514;83;20974;-72
2022/06/11 05:19:09;;;;;;;10.88;6.35;;;;;;;23.42;51.71;100156.64;1721247;80;21021;-71
2022/06/11 05:21:35;;;;;;;9.48;6.20;;;;;;;23.49;51.33;100155.30;1711725;83;21930;-72
2022/06/11 05:24:02;;;;;;;9.68;6.17;;;;;;;23.56;51.11;100164.20;1739908;80;21483;-72
2022/06/11 05:26:37;;;;;;;9.98;5.90;;;;;;;23.62;50.54;100160.67;1738316;82;21526;-71
2022/06/11 05:29:06;;;;;;;11.30;6.00;;;;;;;23.69;50.32;100161.48;1740674;81;20997;-70
2022/06/11 05:31:34;;;;;;;14.47;6.28;;;;;;;23.77;50.34;100160.95;1712629;83;20978;-71
2022/06/11 05:34:00;;;;;;;11.70;5.97;;;;;;;23.81;50.39;100164.34;1740735;81;21920;-72
2022/06/11 05:36:27;;;;;;;11.95;5.72;;;;;;;23.87;50.27;100162.16;1712694;83;20953;-72
2022/06/11 05:38:54;;;;;;;13.58;6.15;;;;;;;23.93;49.58;100165.35;1712695;83;21431;-73
2022/06/11 05:41:21;;;;;;;10.40;6.35;;;;;;;23.98;49.43;100175.48;1710883;83;21036;-72
2022/06/11 05:43:49;;;;;;;12.00;6.25;;;;;;;24.02;49.49;100169.13;1713345;83;21056;-72
2022/06/11 05:46:19;;;;;;;9.73;5.87;;;;;;;24.09;49.43;100175.34;1738393;82;21824;-71
2022/06/11 05:48:49;;;;;;;10.25;5.75;;;;;;;24.16;49.14;100173.44;1709589;83;21096;-71
2022/06/11 05:51:20;;;;;;;13.95;6.42;;;;;;;24.21;48.50;100167.69;1683159;83;21025;-70
2022/06/11 05:53:48;;;;;;;13.98;5.95;;;;;;;24.28;48.58;100171.70;1680795;83;22364;-71
2022/06/11 05:56:17;;;;;;;9.18;5.78;;;;;;;24.35;48.74;100175.76;1734001;82;21552;-70
2022/06/11 05:58:47;;;;;;;11.08;6.10;;;;;;;24.41;48.01;100177.58;1741642;82;21991;-73
2022/06/11 06:01:17;;;;;;;10.70;5.47;;;;;;;24.45;48.18;100182.34;1740169;82;21517;-75
2022/06/11 06:03:43;;;;;;;9.28;6.08;;;;;;;24.53;48.06;100187.48;1734138;82;21040;-73
2022/06/11 06:06:11;;;;;;;7.83;5.45;;;;;;;24.60;48.22;100187.42;1734870;82;21024;-74
2022/06/11 06:08:38;;;;;;;12.47;5.95;;;;;;;24.69;48.26;100182.59;1756325;81;21162;-74
2022/06/11 06:11:06;;;;;;;9.10;5.87;;;;;;;24.77;47.75;100174.22;1745064;82;21898;-75
2022/06/11 06:13:46;;;;;;;11.35;6.03;;;;;;;24.81;47.51;100181.69;1763477;81;21048;-75
2022/06/11 06:16:26;;;;;;;9.43;5.80;;;;;;;24.87;46.69;100181.31;1754972;81;21024;-73
2022/06/11 06:18:55;;;;;;;11.55;5.72;;;;;;;24.95;46.88;100177.52;1735143;82;21064;-74
2022/06/11 06:21:25;;;;;;;8.70;5.33;;;;;;;25.03;46.65;100174.58;1757901;81;21025;-74
2022/06/11 06:23:52;;;;;;;10.80;5.53;;;;;;;25.16;45.64;100173.09;1741947;80;22211;-73
2022/06/11 06:26:19;;;;;;;8.35;5.85;;;;;;;25.29;45.70;100174.87;1716695;82;21040;-76
2022/06/11 06:28:46;;;;;;;9.38;5.25;;;;;;;25.40;45.37;100170.90;1716665;82;21102;-74
2022/06/11 06:31:15;;;;;;;10.90;5.70;;;;;;;25.52;45.57;100172.86;1764747;81;21016;-70
2022/06/11 06:33:42;;;;;;;12.40;5.50;;;;;;;25.64;44.81;100181.34;1750160;81;21040;-71
2022/06/11 06:36:09;;;;;;;8.25;5.05;;;;;;;25.73;44.70;100173.79;1764773;81;21900;-72
2022/06/11 06:38:36;;;;;;;9.38;5.05;;;;;;;25.84;44.72;100174.38;1759851;80;20968;-70
2022/06/11 06:41:04;;;;;;;11.12;5.20;;;;;;;25.96;43.21;100171.73;1732986;81;21005;-71
2022/06/11 06:43:31;;;;;;;10.20;5.42;;;;;;;26.07;43.73;100178.29;1743695;82;21072;-71
2022/06/11 06:45:57;;;;;;;8.23;4.92;;;;;;;26.20;43.52;100180.81;1763944;80;21084;-73
2022/06/11 06:48:25;;;;;;;9.98;5.65;;;;;;;26.31;42.34;100179.20;1755740;81;21813;-73
2022/06/11 06:50:53;;;;;;;7.72;5.30;;;;;;;26.37;40.98;100181.00;1726101;83;21527;-72
2022/06/11 06:53:21;;;;;;;12.15;5.72;;;;;;;26.45;41.32;100185.61;1726091;83;21535;-72
2022/06/11 06:55:48;;;;;;;11.20;5.20;;;;;;;26.54;40.83;100187.46;1736202;81;21042;-71
2022/06/11 06:58:15;;;;;;;11.48;5.17;;;;;;;26.65;41.04;100192.08;1748884;81;20996;-73
2022/06/11 07:00:44;;;;;;;9.10;4.80;;;;;;;26.76;40.27;100187.22;1748930;82;21801;-73
2022/06/11 07:03:13;;;;;;;9.43;4.70;;;;;;;26.88;38.17;100178.28;1748936;80;21024;-73
2022/06/11 07:05:40;;;;;;;13.83;4.80;;;;;;;26.94;36.99;100188.20;1736284;81;21111;-73
2022/06/11 07:08:08;;;;;;;9.45;4.65;;;;;;;26.98;36.73;100188.02;1749023;82;20969;-72
2022/06/11 07:10:36;;;;;;;7.78;4.67;;;;;;;27.04;37.07;100194.72;1736230;82;21605;-73
2022/06/11 07:13:03;;;;;;;11.43;4.80;;;;;;;27.15;37.24;100187.66;1764518;79;22596;-72
2022/06/11 07:15:29;;;;;;;7.50;4.80;;;;;;;27.30;37.28;100184.45;1768342;79;20998;-73
2022/06/11 07:18:05;;;;;;;8.23;5.00;;;;;;;27.44;37.13;100194.55;1763885;81;21041;-72
2022/06/11 07:20:33;;;;;;;8.70;4.62;;;;;;;27.53;35.66;100186.35;1698139;84;21151;-72
2022/06/11 07:23:07;;;;;;;13.10;4.75;;;;;;;27.56;36.10;100189.41;1700596;84;21496;-71
2022/06/11 07:25:33;;;;;;;9.28;5.35;;;;;;;27.63;35.43;100187.40;1704610;84;21458;-72
2022/06/11 07:28:07;;;;;;;10.58;5.12;;;;;;;27.63;35.26;100185.22;1703142;84;21330;-72
2022/06/11 07:30:35;;;;;;;8.88;4.53;;;;;;;27.60;34.68;100182.95;1709042;82;21103;-72
2022/06/11 07:33:07;;;;;;;8.33;4.78;;;;;;;27.60;34.57;100182.45;1735210;82;21048;-70
2022/06/11 07:35:35;;;;;;;9.50;4.28;;;;;;;27.68;34.85;100189.41;1709055;84;20963;-70
2022/06/11 07:38:05;;;;;;;10.80;4.80;;;;;;;27.81;34.05;100185.64;1734981;81;21935;-70
2022/06/11 07:40:31;;;;;;;7.45;4.03;;;;;;;27.90;33.81;100193.17;1709031;84;21387;-70
2022/06/11 07:42:58;;;;;;;8.45;4.35;;;;;;;27.93;33.33;100183.17;1735398;81;21403;-70
2022/06/11 07:45:25;;;;;;;9.33;4.53;;;;;;;28.00;33.05;100178.16;1703593;84;21404;-70
2022/06/11 07:47:55;;;;;;;8.33;4.35;;;;;;;28.09;33.32;100183.50;1748361;81;21060;-70
2022/06/11 07:50:29;;;;;;;7.47;3.67;;;;;;;28.18;33.45;100176.59;1742353;82;22570;-71
2022/06/11 07:52:56;;;;;;;7.83;3.92;;;;;;;28.31;33.35;100179.59;1742756;82;20938;-70
2022/06/11 07:55:23;;;;;;;10.38;4.37;;;;;;;28.43;33.02;100171.67;1747701;81;21509;-70
2022/06/11 07:57:49;;;;;;;8.35;4.30;;;;;;;28.54;32.94;100174.57;1755123;81;21472;-70
2022/06/11 08:00:21;;;;;;;11.28;4.30;;;;;;;28.61;33.09;100173.89;1755177;81;21425;-70
2022/06/11 08:02:49;;;;;;;10.48;4.30;;;;;;;28.74;33.12;100173.56;1751407;81;24218;-71
2022/06/11 08:05:16;;;;;;;9.78;4.20;;;;;;;28.90;32.86;100174.69;1694760;84;21517;-71
2022/06/11 08:07:42;;;;;;;9.93;3.72;;;;;;;29.05;32.04;100171.69;1724846;82;21008;-71
2022/06/11 08:10:10;;;;;;;8.75;3.72;;;;;;;29.14;31.29;100164.44;1694868;84;21060;-71
2022/06/11 08:12:36;;;;;;;5.75;3.33;;;;;;;29.20;31.76;100169.72;1724971;83;20977;-71
2022/06/11 08:15:03;;;;;;;10.85;3.60;;;;;;;29.29;30.53;100175.56;1706392;84;21862;-70
2022/06/11 08:17:32;;;;;;;7.70;3.08;;;;;;;29.26;30.96;100170.09;1711772;83;21029;-71
2022/06/11 08:20:01;;;;;;;6.33;3.15;;;;;;;29.27;30.53;100178.53;1730042;82;21024;-70
2022/06/11 08:22:28;;;;;;;7.90;3.40;;;;;;;29.27;30.41;100169.55;1684206;85;20984;-70
2022/06/11 08:24:55;;;;;;;4.62;3.05;;;;;;;29.31;30.70;100170.16;1711417;83;21003;-71
2022/06/11 08:27:22;;;;;;;7.40;2.83;;;;;;;29.38;31.13;100165.91;1711243;83;22507;-69
2022/06/11 08:29:49;;;;;;;7.53;3.05;;;;;;;29.49;30.62;100161.45;1711226;83;21511;-70
2022/06/11 08:32:15;;;;;;;6.70;3.25;;;;;;;29.62;29.92;100159.17;1711273;83;21444;-70
2022/06/11 08:34:45;;;;;;;7.42;3.55;;;;;;;29.79;30.89;100164.57;1711251;83;21061;-71
2022/06/11 08:37:13;;;;;;;6.97;3.33;;;;;;;29.79;30.89;100164.57;1718935;82;21045;-70
2022/06/11 08:39:40;;;;;;;7.00;3.30;;;;;;;29.95;30.30;100164.77;1740829;82;21845;-70
2022/06/11 08:42:09;;;;;;;6.97;2.95;;;;;;;30.01;30.43;100165.09;1740850;82;20962;-70
2022/06/11 08:44:36;;;;;;;8.63;2.62;;;;;;;30.07;29.97;100162.21;1738601;82;20979;-71
2022/06/11 08:47:09;;;;;;;7.45;2.80;;;;;;;30.09;29.34;100154.60;1740815;82;21078;-70
2022/06/11 08:49:44;;;;;;;8.78;2.90;;;;;;;30.19;29.49;100160.70;1740374;81;21006;-70
2022/06/11 08:52:15;;;;;;;9.10;2.90;;;;;;;30.31;29.44;100153.77;1740779;81;21938;-71
2022/06/11 08:54:45;;;;;;;6.33;2.70;;;;;;;30.36;28.70;100153.26;1737544;81;20997;-71
2022/06/11 08:57:36;;;;;;;9.08;3.00;;;;;;;30.41;28.77;100151.96;1778944;80;20994;-71
2022/06/11 09:00:26;;;;;;;6.03;3.00;;;;;;;30.48;28.55;100152.55;1779855;80;20964;-70
2022/06/11 09:03:01;;;;;;;5.33;2.50;;;;;;;30.56;28.42;100146.35;1757856;80;21012;-70
2022/06/11 09:05:55;;;;;;;5.85;2.80;;;;;;;30.65;28.22;100149.74;1779900;80;22290;-71
2022/06/11 09:08:51;;;;;;;10.25;3.00;;;;;;;30.73;28.50;100152.54;1779630;80;20985;-71
2022/06/11 09:11:46;;;;;;;8.43;3.00;;;;;;;30.84;28.98;100150.17;1773795;80;21477;-71
2022/06/11 09:14:57;;;;;;;8.98;2.90;;;;;;;30.91;28.44;100140.41;1779961;80;20949;-71
2022/06/11 09:17:31;;;;;;;5.55;2.20;;;;;;;31.03;28.59;100145.13;1779833;80;20957;-71
2022/06/11 09:20:22;;;;;;;5.03;2.40;;;;;;;31.14;27.10;100138.66;1779787;80;21826;-71
2022/06/11 09:23:00;;;;;;;7.22;2.10;;;;;;;31.21;28.50;100141.19;1733252;80;21486;-71
2022/06/11 09:25:44;;;;;;;5.05;1.95;;;;;;;31.37;27.43;100143.48;1713237;83;20958;-71
2022/06/11 09:28:22;;;;;;;4.05;2.20;;;;;;;31.43;27.50;100145.13;1723836;81;21689;-71
2022/06/11 09:31:01;;;;;;;7.15;2.12;;;;;;;31.56;27.03;100131.02;1748538;82;21042;-71
2022/06/11 09:33:40;;;;;;;2.85;1.82;;;;;;;31.67;27.54;100132.70;1748963;82;21034;-71
2022/06/11 09:36:20;;;;;;;5.20;1.90;;;;;;;31.85;27.28;100132.26;1748516;82;20943;-71
2022/06/11 09:39:09;;;;;;;5.12;2.15;;;;;;;32.03;26.57;100130.92;1749251;82;20966;-71
2022/06/11 09:41:53;;;;;;;4.97;2.05;;;;;;;32.15;26.34;100127.97;1748754;82;20963;-71
2022/06/11 09:44:40;;;;;;;4.95;2.40;;;;;;;32.24;23.77;100137.83;1748610;82;21017;-71
2022/06/11 09:47:15;;;;;;;7.50;2.30;;;;;;;32.19;24.29;100133.97;1719145;83;21861;-71
2022/06/11 09:50:15;;;;;;;7.40;2.90;;;;;;;32.28;23.77;100130.16;1719320;83;20974;-71
2022/06/11 09:52:50;;;;;;;6.40;2.62;;;;;;;32.30;22.98;100129.38;1719220;83;21021;-71
2022/06/11 09:55:31;;;;;;;6.33;2.92;;;;;;;32.40;23.72;100134.85;1740567;82;20971;-71
2022/06/11 09:58:20;;;;;;;3.62;3.10;;;;;;;32.59;23.33;100133.77;1743081;82;20974;-71
2022/06/11 10:00:53;;;;;;;4.40;3.02;;;;;;;32.79;22.89;100137.05;1743164;82;22241;-71
2022/06/11 10:03:35;;;;;;;5.25;2.80;;;;;;;33.02;22.32;100132.97;1714374;82;21406;-71
2022/06/11 10:06:31;;;;;;;;;;;;;;;33.21;23.34;100139.50;1745672;82;20995;-71
2022/06/11 10:09:00;;;;;;;8.23;4.00;;;;;;;33.45;21.15;100136.99;1743105;82;20302;-71
2022/06/11 10:11:46;;;;;;;5.10;3.52;;;;;;;33.43;21.08;100133.72;1743086;82;20983;-71
2022/06/11 10:14:29;;;;;;;9.95;4.20;;;;;;;33.48;21.39;100131.50;1742902;82;21807;-71
2022/06/11 10:17:30;;;;;;;9.00;4.75;;;;;;;33.54;20.80;100137.23;1743033;82;20956;-71
2022/06/11 10:20:10;;;;;;;6.50;4.33;;;;;;;33.44;19.48;100131.25;1743676;81;21461;-71
2022/06/11 10:22:59;;;;;;;10.80;4.20;;;;;;;33.42;20.89;100135.37;1743331;82;20967;-71
2022/06/11 10:25:36;;;;;;;8.75;4.65;;;;;;;33.51;19.81;100130.41;1743081;82;20950;-71
2022/06/11 10:28:25;;;;;;;7.58;4.15;;;;;;;33.57;20.26;100130.64;1742920;82;22268;-72
2022/06/11 10:31:16;;;;;;;6.30;4.00;;;;;;;33.69;20.16;100132.27;1743066;82;21002;-72
2022/06/11 10:34:12;;;;;;;7.15;3.40;;;;;;;33.81;20.07;100128.09;1743229;82;21054;-72
2022/06/11 10:36:55;;;;;;;5.90;3.72;;;;;;;33.95;20.37;100135.16;1743966;81;21058;-72
2022/06/11 10:39:59;;;;;;;6.62;3.90;;;;;;;34.08;20.22;100131.00;1743189;82;21135;-72
2022/06/11 10:42:37;;;;;;;9.83;4.08;;;;;;;34.29;20.43;100133.05;1741464;82;21845;-74
2022/06/11 10:45:04;;;;;;;7.55;3.72;;;;;;;34.46;19.16;100130.77;1713650;83;21518;-72
2022/06/11 10:47:39;;;;;;;5.80;3.40;;;;;;;34.46;20.35;100128.02;1713504;83;21496;-72
2022/06/11 10:50:15;;;;;;;8.23;3.90;;;;;;;34.60;19.81;100126.25;1716959;83;20969;-72
2022/06/11 10:53:06;;;;;;;5.28;3.40;;;;;;;34.76;19.51;100126.13;1718787;82;21060;-72
2022/06/11 10:55:51;;;;;;;5.78;3.20;;;;;;;34.94;19.66;100128.19;1745349;81;21803;-72
2022/06/11 10:58:47;;;;;;;6.42;2.75;;;;;;;35.09;18.45;100134.06;1738971;82;21479;-72
2022/06/11 11:01:28;;;;;;;3.62;2.50;;;;;;;34.92;17.92;100117.48;1739909;82;20990;-72
2022/06/11 11:04:18;;;;;;;9.65;2.60;;;;;;;34.61;17.95;100125.70;1739878;82;21401;-72
2022/06/11 11:06:45;;;;;;;8.03;2.60;;;;;;;34.33;19.15;100117.66;1739929;82;21459;-71
2022/06/11 11:09:15;;;;;;;5.83;2.45;;;;;;;34.39;19.06;100123.41;1739937;82;21990;-71
2022/06/11 11:11:48;;;;;;;4.33;2.33;;;;;;;34.65;19.01;100115.25;1740505;81;21049;-71
2022/06/11 11:14:38;;;;;;;4.78;2.20;;;;;;;34.79;18.27;100120.06;1770222;80;21401;-71
2022/06/11 11:17:06;;;;;;;12.50;2.95;;;;;;;34.69;18.65;100115.48;1790528;80;21005;-71
2022/06/11 11:19:38;;;;;;;5.12;2.22;;;;;;;34.82;18.15;100117.55;1791905;79;21098;-72
2022/06/11 11:22:10;;;;;;;7.35;2.30;;;;;;;34.84;18.36;100114.51;1790387;79;21969;-71
2022/06/11 11:24:45;;;;;;;3.20;2.17;;;;;;;34.77;18.39;100112.67;1790381;79;21386;-71
2022/06/11 11:27:25;;;;;;;3.80;2.00;;;;;;;34.56;18.78;100114.23;1793588;79;20993;-72
2022/06/11 11:29:58;;;;;;;6.03;1.90;;;;;;;34.33;18.61;100110.25;1803602;79;20994;-72
2022/06/11 11:32:39;;;;;;;5.00;2.10;;;;;;;34.26;19.81;100111.66;1803884;79;20981;-71
2022/06/11 11:35:22;;;;;;;4.25;2.00;;;;;;;34.49;18.67;100103.31;1794794;79;21910;-72
2022/06/11 11:38:08;;;;;;;3.80;1.80;;;;;;;34.55;19.81;100104.37;1774197;81;20933;-71
2022/06/11 11:41:01;;;;;;;5.33;2.00;;;;;;;34.79;18.91;100102.22;1773954;80;20978;-71
2022/06/11 11:43:39;;;;;;;3.47;1.87;;;;;;;34.87;19.09;100096.11;1765783;81;21439;-72
2022/06/11 11:46:20;;;;;;;5.25;1.72;;;;;;;35.03;19.33;100101.72;1771781;81;20997;-72
2022/06/11 11:48:58;;;;;;;4.95;1.60;;;;;;;35.14;18.74;100096.97;1771813;81;22316;-72
2022/06/11 11:51:38;;;;;;;1.70;1.40;;;;;;;35.14;18.30;100095.04;1756724;80;20865;-72
2022/06/11 11:54:21;;;;;;;3.17;1.30;;;;;;;35.18;18.57;100097.45;1799264;79;21475;-77